HorshamWeather.Com Historical Data
 
Daily Summary for February 01, 2015 Units:  English    Metric   Both
« Previous Day
Next Day »
Daily Weekly Monthly Yearly Custom
  Current: High: Low: Average:
Temperature: 34.8 °F 38.6 °F 17.0 °F 29.5 °F
Dew Point: 28.0 °F 28.5 °F 10.1 °F 20.2 °F
Humidity: 76% 78% 53% 68%
Wind Speed: 0.0mph 6.0mph 0.0mph 1.7mph
Wind Gust: 0.0mph 9.0mph - -
WindCalm - - WSW
Pressure: 30.11 in 30.28 in 30.10 in -
Precipitation: 0.00 in      
Historical Graphs
 
 
Tabular Data for February 01, 2015
Time Temperature Dew Point Pressure Wind Wind Speed Wind Gust Humidity Rainfall Rate (Hourly)
00:00 17.0 °F 10.2 °F 30.26 in Calm     74% 0.00 in
00:05 17.1 °F 10.3 °F 30.26 in Calm   1.0 mph 74% 0.00 in
00:10 17.2 °F 10.4 °F 30.26 in Calm   2.0 mph 74% 0.00 in
00:15 17.3 °F 10.4 °F 30.27 in Calm   1.0 mph 74% 0.00 in
00:20 17.3 °F 10.1 °F 30.27 in Calm   2.0 mph 73% 0.00 in
00:25 17.4 °F 10.2 °F 30.27 in Calm     73% 0.00 in
00:30 17.6 °F 10.4 °F 30.27 in Calm   1.0 mph 73% 0.00 in
00:35 17.9 °F 10.7 °F 30.27 in Calm   3.0 mph 73% 0.00 in
00:40 18.2 °F 10.7 °F 30.27 in Calm   2.0 mph 72% 0.00 in
00:45 18.4 °F 10.9 °F 30.27 in Calm   2.0 mph 72% 0.00 in
00:50 18.7 °F 11.2 °F 30.27 in SW 1.0 mph 3.0 mph 72% 0.00 in
00:55 18.9 °F 11.1 °F 30.26 in SW 1.0 mph 3.0 mph 71% 0.00 in
01:00 19.0 °F 11.2 °F 30.27 in Calm   2.0 mph 71% 0.00 in
01:05 19.0 °F 11.2 °F 30.26 in Calm   1.0 mph 71% 0.00 in
01:10 19.0 °F 11.2 °F 30.26 in Calm   1.0 mph 71% 0.00 in
01:15 19.1 °F 11.3 °F 30.26 in Calm   3.0 mph 71% 0.00 in
01:20 19.0 °F 11.2 °F 30.26 in Calm     71% 0.00 in
01:25 18.9 °F 11.1 °F 30.26 in Calm     71% 0.00 in
01:30 18.8 °F 11.0 °F 30.26 in Calm     71% 0.00 in
01:35 18.6 °F 11.1 °F 30.26 in Calm     72% 0.00 in
01:40 18.4 °F 10.9 °F 30.26 in Calm   1.0 mph 72% 0.00 in
01:45 18.3 °F 11.1 °F 30.26 in Calm   1.0 mph 73% 0.00 in
01:50 18.1 °F 10.9 °F 30.26 in Calm   1.0 mph 73% 0.00 in
01:55 18.0 °F 11.1 °F 30.26 in Calm   1.0 mph 74% 0.00 in
02:00 17.9 °F 11.0 °F 30.26 in Calm   1.0 mph 74% 0.00 in
02:05 17.7 °F 10.8 °F 30.26 in Calm   1.0 mph 74% 0.00 in
02:10 17.6 °F 11.0 °F 30.26 in Calm   1.0 mph 75% 0.00 in
02:15 17.6 °F 11.0 °F 30.26 in Calm   1.0 mph 75% 0.00 in
02:20 17.5 °F 11.2 °F 30.26 in Calm     76% 0.00 in
02:25 17.5 °F 11.2 °F 30.26 in Calm     76% 0.00 in
02:30 17.6 °F 11.6 °F 30.26 in Calm   1.0 mph 77% 0.00 in
02:35 17.8 °F 11.8 °F 30.26 in Calm   4.0 mph 77% 0.00 in
02:40 18.4 °F 12.7 °F 30.26 in WSW 1.0 mph 4.0 mph 78% 0.00 in
02:45 18.8 °F 12.8 °F 30.26 in Calm   3.0 mph 77% 0.00 in
02:50 19.4 °F 13.1 °F 30.26 in WSW 1.0 mph 3.0 mph 76% 0.00 in
02:55 19.8 °F 13.5 °F 30.26 in Calm   1.0 mph 76% 0.00 in
03:00 20.2 °F 13.6 °F 30.26 in Calm   2.0 mph 75% 0.00 in
03:05 20.6 °F 13.9 °F 30.26 in Calm   2.0 mph 75% 0.00 in
03:10 20.9 °F 13.9 °F 30.26 in Calm   1.0 mph 74% 0.00 in
03:15 21.2 °F 14.2 °F 30.25 in Calm     74% 0.00 in
03:20 21.4 °F 14.4 °F 30.25 in Calm   1.0 mph 74% 0.00 in
03:25 21.6 °F 14.6 °F 30.25 in Calm   2.0 mph 74% 0.00 in
03:30 21.8 °F 14.8 °F 30.25 in WSW 1.0 mph 2.0 mph 74% 0.00 in
03:35 22.0 °F 15.0 °F 30.25 in Calm   1.0 mph 74% 0.00 in
03:40 22.1 °F 15.1 °F 30.25 in Calm     74% 0.00 in
03:45 22.2 °F 15.2 °F 30.25 in WSW 1.0 mph 2.0 mph 74% 0.00 in
03:50 22.3 °F 15.0 °F 30.25 in Calm   1.0 mph 73% 0.00 in
03:55 22.4 °F 15.1 °F 30.25 in Calm     73% 0.00 in
04:00 22.4 °F 14.8 °F 30.26 in Calm   1.0 mph 72% 0.00 in
04:05 22.6 °F 14.9 °F 30.26 in Calm   1.0 mph 72% 0.00 in
04:10 22.6 °F 15.3 °F 30.25 in Calm   1.0 mph 73% 0.00 in
04:15 22.7 °F 15.4 °F 30.26 in WSW 1.0 mph 2.0 mph 73% 0.00 in
04:20 22.7 °F 15.1 °F 30.26 in Calm   2.0 mph 72% 0.00 in
04:25 22.8 °F 15.1 °F 30.26 in WSW 1.0 mph 2.0 mph 72% 0.00 in
04:30 22.9 °F 15.2 °F 30.27 in Calm   1.0 mph 72% 0.00 in
04:35 23.0 °F 15.3 °F 30.26 in Calm   1.0 mph 72% 0.00 in
04:40 23.0 °F 15.3 °F 30.27 in Calm   1.0 mph 72% 0.00 in
04:45 23.1 °F 15.1 °F 30.27 in Calm   1.0 mph 71% 0.00 in
04:50 23.2 °F 15.2 °F 30.27 in Calm   1.0 mph 71% 0.00 in
04:55 23.4 °F 15.4 °F 30.27 in Calm   1.0 mph 71% 0.00 in
05:00 23.4 °F 15.7 °F 30.27 in Calm     72% 0.00 in
05:05 23.5 °F 15.8 °F 30.27 in Calm     72% 0.00 in
05:10 23.6 °F 15.6 °F 30.27 in Calm   1.0 mph 71% 0.00 in
05:15 23.6 °F 15.6 °F 30.27 in Calm   1.0 mph 71% 0.00 in
05:20 23.7 °F 15.7 °F 30.27 in Calm   1.0 mph 71% 0.00 in
05:25 23.8 °F 15.8 °F 30.27 in Calm     71% 0.00 in
05:30 23.9 °F 16.2 °F 30.27 in Calm   2.0 mph 72% 0.00 in
05:35 23.9 °F 16.2 °F 30.27 in Calm   1.0 mph 72% 0.00 in
05:40 24.0 °F 16.3 °F 30.27 in Calm   1.0 mph 72% 0.00 in
05:45 24.1 °F 16.4 °F 30.26 in Calm     72% 0.00 in
05:50 24.1 °F 16.4 °F 30.26 in Calm   1.0 mph 72% 0.00 in
05:55 24.2 °F 16.5 °F 30.26 in Calm   1.0 mph 72% 0.00 in
06:00 24.2 °F 16.5 °F 30.26 in Calm   1.0 mph 72% 0.00 in
06:05 24.3 °F 16.6 °F 30.26 in Calm   1.0 mph 72% 0.00 in
06:10 24.4 °F 16.7 °F 30.27 in Calm   1.0 mph 72% 0.00 in
06:15 24.4 °F 16.7 °F 30.27 in Calm   1.0 mph 72% 0.00 in
06:20 24.5 °F 16.8 °F 30.27 in Calm     72% 0.00 in
06:25 24.6 °F 17.2 °F 30.27 in Calm   1.0 mph 73% 0.00 in
06:30 24.6 °F 17.2 °F 30.27 in Calm   1.0 mph 73% 0.00 in
06:35 24.7 °F 17.3 °F 30.27 in Calm   1.0 mph 73% 0.00 in
06:40 24.7 °F 17.3 °F 30.26 in Calm   1.0 mph 73% 0.00 in
06:45 24.8 °F 17.4 °F 30.26 in Calm   1.0 mph 73% 0.00 in
06:50 24.8 °F 17.4 °F 30.26 in Calm   1.0 mph 73% 0.00 in
06:55 24.8 °F 17.1 °F 30.26 in Calm   2.0 mph 72% 0.00 in
07:00 24.9 °F 17.5 °F 30.26 in WSW 1.0 mph 2.0 mph 73% 0.00 in
07:05 24.9 °F 17.2 °F 30.26 in Calm   1.0 mph 72% 0.00 in
07:10 24.9 °F 17.2 °F 30.26 in Calm   1.0 mph 72% 0.00 in
07:15 25.0 °F 17.3 °F 30.27 in Calm   2.0 mph 72% 0.00 in
07:20 25.0 °F 17.3 °F 30.27 in Calm   1.0 mph 72% 0.00 in
07:25 25.1 °F 17.0 °F 30.27 in Calm   2.0 mph 71% 0.00 in
07:30 25.2 °F 17.1 °F 30.27 in Calm   1.0 mph 71% 0.00 in
07:35 25.3 °F 17.2 °F 30.27 in Calm   1.0 mph 71% 0.00 in
07:40 25.4 °F 17.3 °F 30.26 in Calm   1.0 mph 71% 0.00 in
07:45 25.5 °F 17.8 °F 30.27 in Calm   1.0 mph 72% 0.00 in
07:50 25.7 °F 17.6 °F 30.27 in Calm   1.0 mph 71% 0.00 in
07:55 25.8 °F 17.7 °F 30.27 in Calm     71% 0.00 in
08:00 25.9 °F 17.5 °F 30.27 in Calm     70% 0.00 in
08:05 26.1 °F 17.7 °F 30.27 in Calm   2.0 mph 70% 0.00 in
08:10 26.2 °F 17.8 °F 30.27 in Calm   1.0 mph 70% 0.00 in
08:15 26.5 °F 18.0 °F 30.27 in Calm   1.0 mph 70% 0.00 in
08:20 26.7 °F 17.9 °F 30.27 in Calm   1.0 mph 69% 0.00 in
08:25 27.0 °F 18.2 °F 30.27 in Calm   1.0 mph 69% 0.00 in
08:30 27.2 °F 18.0 °F 30.27 in Calm   1.0 mph 68% 0.00 in
08:35 27.4 °F 17.9 °F 30.27 in WSW 1.0 mph 2.0 mph 67% 0.00 in
08:40 27.7 °F 18.2 °F 30.27 in Calm   2.0 mph 67% 0.00 in
08:45 27.9 °F 18.0 °F 30.27 in WSW 1.0 mph 2.0 mph 66% 0.00 in
08:50 28.1 °F 18.2 °F 30.27 in Calm   2.0 mph 66% 0.00 in
08:55 28.4 °F 18.5 °F 30.27 in WNW 1.0 mph 3.0 mph 66% 0.00 in
09:00 28.7 °F 18.8 °F 30.27 in WNW 1.0 mph 2.0 mph 66% 0.00 in
09:05 29.0 °F 18.7 °F 30.27 in Calm   2.0 mph 65% 0.00 in
09:10 29.2 °F 18.5 °F 30.27 in WNW 1.0 mph 3.0 mph 64% 0.00 in
09:15 29.4 °F 18.7 °F 30.27 in West 2.0 mph 3.0 mph 64% 0.00 in
09:20 29.9 °F 18.9 °F 30.27 in SW 1.0 mph 4.0 mph 63% 0.00 in
09:25 30.5 °F 18.7 °F 30.27 in WSW 2.0 mph 5.0 mph 61% 0.00 in
09:30 31.0 °F 19.5 °F 30.28 in SW 2.0 mph 4.0 mph 62% 0.00 in
09:35 31.5 °F 19.2 °F 30.28 in WSW 2.0 mph 7.0 mph 60% 0.00 in
09:40 31.9 °F 19.2 °F 30.28 in WSW 2.0 mph 7.0 mph 59% 0.00 in
09:45 32.1 °F 19.8 °F 30.28 in West 2.0 mph 7.0 mph 60% 0.00 in
09:50 32.3 °F 20.0 °F 30.28 in SSW 1.0 mph 6.0 mph 60% 0.00 in
09:55 32.6 °F 19.9 °F 30.27 in West 2.0 mph 4.0 mph 59% 0.00 in
10:00 32.9 °F 20.2 °F 30.27 in WSW 1.0 mph 4.0 mph 59% 0.00 in
10:05 33.2 °F 20.4 °F 30.27 in WSW 1.0 mph 3.0 mph 59% 0.00 in
10:10 33.5 °F 20.3 °F 30.27 in West 2.0 mph 4.0 mph 58% 0.00 in
10:15 33.8 °F 20.6 °F 30.27 in West 1.0 mph 4.0 mph 58% 0.00 in
10:20 34.0 °F 20.8 °F 30.27 in WNW 2.0 mph 4.0 mph 58% 0.00 in
10:25 34.3 °F 20.7 °F 30.27 in WNW 2.0 mph 4.0 mph 57% 0.00 in
10:30 34.4 °F 20.3 °F 30.27 in NW 3.0 mph 7.0 mph 56% 0.00 in
10:35 34.7 °F 21.5 °F 30.26 in NW 1.0 mph 2.0 mph 58% 0.00 in
10:40 35.1 °F 21.4 °F 30.26 in WNW 2.0 mph 6.0 mph 57% 0.00 in
10:45 35.4 °F 21.3 °F 30.26 in WNW 3.0 mph 8.0 mph 56% 0.00 in
10:58 35.7 °F 20.7 °F 30.26 in NW 2.0 mph 6.0 mph 54% 0.00 in
11:03 36.6 °F 22.4 °F 30.26 in WNW 4.0 mph 9.0 mph 56% 0.00 in
11:08 36.8 °F 22.2 °F 30.26 in NW 2.0 mph 5.0 mph 55% 0.00 in
11:13 37.0 °F 22.4 °F 30.25 in NW 4.0 mph 4.0 mph 55% 0.00 in
11:18 37.3 °F 21.8 °F 30.25 in WNW 2.0 mph 7.0 mph 53% 0.00 in
11:23 37.3 °F 21.8 °F 30.25 in WNW 1.0 mph 7.0 mph 53% 0.00 in
11:28 37.3 °F 21.8 °F 30.24 in WNW 1.0 mph 5.0 mph 53% 0.00 in
11:33 37.4 °F 22.7 °F 30.24 in WNW 1.0 mph 5.0 mph 55% 0.00 in
11:38 37.5 °F 22.4 °F 30.24 in WNW 3.0 mph 7.0 mph 54% 0.00 in
11:43 37.6 °F 22.5 °F 30.24 in WNW 2.0 mph 7.0 mph 54% 0.00 in
11:48 37.7 °F 23.4 °F 30.24 in WSW 2.0 mph 5.0 mph 56% 0.00 in
11:53 37.9 °F 23.2 °F 30.23 in WSW 2.0 mph 3.0 mph 55% 0.00 in
11:58 37.9 °F 23.6 °F 30.23 in WSW 2.0 mph 4.0 mph 56% 0.00 in
12:03 38.0 °F 23.7 °F 30.23 in WSW 2.0 mph 4.0 mph 56% 0.00 in
12:08 38.1 °F 23.8 °F 30.23 in WSW 2.0 mph 4.0 mph 56% 0.00 in
12:13 38.2 °F 23.9 °F 30.23 in WNW 1.0 mph 5.0 mph 56% 0.00 in
12:18 38.0 °F 23.7 °F 30.23 in NW 3.0 mph 4.0 mph 56% 0.00 in
12:23 38.0 °F 24.1 °F 30.22 in WNW 3.0 mph 3.0 mph 57% 0.00 in
12:28 37.9 °F 24.0 °F 30.22 in NW 4.0 mph 7.0 mph 57% 0.00 in
12:33 37.8 °F 24.4 °F 30.22 in WNW 3.0 mph 4.0 mph 58% 0.00 in
12:38 37.8 °F 24.8 °F 30.22 in WNW 2.0 mph 3.0 mph 59% 0.00 in
12:43 37.8 °F 24.8 °F 30.21 in North 3.0 mph 8.0 mph 59% 0.00 in
12:48 37.7 °F 25.1 °F 30.21 in West 2.0 mph 5.0 mph 60% 0.00 in
12:50 37.7 °F 25.5 °F 30.20 in NW 3.0 mph 4.0 mph 61% 0.00 in
12:55 37.8 °F 25.6 °F 30.20 in West 1.0 mph 1.0 mph 61% 0.00 in
13:00 38.0 °F 25.8 °F 30.19 in NW 2.0 mph 4.0 mph 61% 0.00 in
13:05 38.4 °F 26.1 °F 30.19 in West 1.0 mph 1.0 mph 61% 0.00 in
13:10 38.6 °F 25.5 °F 30.18 in North 2.0 mph 2.0 mph 59% 0.00 in
13:15 38.6 °F 25.5 °F 30.18 in NNW 1.0 mph 2.0 mph 59% 0.00 in
13:20 38.5 °F 25.8 °F 30.18 in WNW 1.0 mph 1.0 mph 60% 0.00 in
13:25 38.5 °F 26.2 °F 30.18 in WNW 2.0 mph 3.0 mph 61% 0.00 in
13:30 38.4 °F 26.1 °F 30.18 in SW 2.0 mph 2.0 mph 61% 0.00 in
13:35 38.4 °F 26.1 °F 30.18 in WNW 1.0 mph 1.0 mph 61% 0.00 in
13:40 38.4 °F 26.1 °F 30.18 in NW 2.0 mph 3.0 mph 61% 0.00 in
13:45 38.5 °F 26.6 °F 30.18 in SSW 1.0 mph 2.0 mph 62% 0.00 in
13:50 38.5 °F 27.0 °F 30.18 in NW 3.0 mph 3.0 mph 63% 0.00 in
13:55 38.6 °F 26.7 °F 30.18 in NW 2.0 mph 2.0 mph 62% 0.00 in
14:00 38.5 °F 27.0 °F 30.18 in WNW 3.0 mph 3.0 mph 63% 0.00 in
14:05 38.4 °F 26.5 °F 30.18 in NW 1.0 mph 2.0 mph 62% 0.00 in
14:10 38.2 °F 27.1 °F 30.18 in WSW 2.0 mph 2.0 mph 64% 0.00 in
14:15 38.1 °F 27.0 °F 30.18 in WSW 1.0 mph 1.0 mph 64% 0.00 in
14:20 38.2 °F 27.5 °F 30.18 in NW 3.0 mph 3.0 mph 65% 0.00 in
14:25 38.1 °F 27.0 °F 30.17 in WSW 2.0 mph 2.0 mph 64% 0.00 in
14:30 38.1 °F 27.4 °F 30.17 in South 1.0 mph 2.0 mph 65% 0.00 in
14:35 38.0 °F 27.3 °F 30.17 in SW 2.0 mph 4.0 mph 65% 0.00 in
14:40 37.9 °F 27.6 °F 30.17 in West 6.0 mph 6.0 mph 66% 0.00 in
14:45 37.7 °F 27.4 °F 30.17 in SSW 3.0 mph 3.0 mph 66% 0.00 in
14:50 37.5 °F 27.2 °F 30.17 in WNW 1.0 mph 3.0 mph 66% 0.00 in
14:55 37.4 °F 27.5 °F 30.17 in West 3.0 mph 4.0 mph 67% 0.00 in
15:00 37.3 °F 27.7 °F 30.17 in West 4.0 mph 4.0 mph 68% 0.00 in
15:05 37.2 °F 27.6 °F 30.16 in WSW 2.0 mph 4.0 mph 68% 0.00 in
15:10 37.1 °F 27.5 °F 30.16 in West 1.0 mph 2.0 mph 68% 0.00 in
15:15 37.1 °F 27.9 °F 30.16 in SW 1.0 mph 1.0 mph 69% 0.00 in
15:20 37.1 °F 27.9 °F 30.16 in SW 1.0 mph 2.0 mph 69% 0.00 in
15:25 37.1 °F 27.9 °F 30.15 in Calm   2.0 mph 69% 0.00 in
15:30 37.3 °F 28.1 °F 30.15 in SW 2.0 mph 2.0 mph 69% 0.00 in
15:35 37.4 °F 27.8 °F 30.15 in West 1.0 mph 3.0 mph 68% 0.00 in
15:40 37.5 °F 27.9 °F 30.15 in Calm   1.0 mph 68% 0.00 in
15:45 37.5 °F 27.5 °F 30.15 in NW 2.0 mph 2.0 mph 67% 0.00 in
15:50 37.4 °F 27.8 °F 30.15 in NNE 2.0 mph 2.0 mph 68% 0.00 in
15:55 37.2 °F 27.6 °F 30.15 in North 1.0 mph 1.0 mph 68% 0.00 in
16:00 37.1 °F 27.5 °F 30.15 in North 1.0 mph 1.0 mph 68% 0.00 in
16:05 37.0 °F 27.4 °F 30.15 in North 1.0 mph 1.0 mph 68% 0.00 in
16:10 36.9 °F 27.3 °F 30.15 in North 1.0 mph 1.0 mph 68% 0.00 in
16:15 36.9 °F 27.3 °F 30.14 in Calm     68% 0.00 in
16:20 36.8 °F 27.2 °F 30.15 in North 1.0 mph 1.0 mph 68% 0.00 in
16:25 36.7 °F 27.1 °F 30.15 in Calm     68% 0.00 in
16:30 36.5 °F 27.3 °F 30.15 in Calm     69% 0.00 in
16:35 36.4 °F 27.2 °F 30.15 in Calm     69% 0.00 in
16:40 36.2 °F 27.7 °F 30.14 in ESE 1.0 mph 1.0 mph 71% 0.00 in
16:45 36.1 °F 27.6 °F 30.14 in Calm     71% 0.00 in
16:50 36.0 °F 27.5 °F 30.14 in Calm   1.0 mph 71% 0.00 in
16:55 35.9 °F 27.8 °F 30.14 in Calm   1.0 mph 72% 0.00 in
17:00 35.9 °F 27.8 °F 30.14 in ESE 1.0 mph 2.0 mph 72% 0.00 in
17:05 35.9 °F 27.8 °F 30.14 in ESE 1.0 mph 1.0 mph 72% 0.00 in
17:10 35.8 °F 28.0 °F 30.14 in SSE 1.0 mph 1.0 mph 73% 0.00 in
17:15 35.8 °F 28.0 °F 30.14 in Calm     73% 0.00 in
17:20 35.7 °F 27.9 °F 30.14 in Calm   1.0 mph 73% 0.00 in
17:25 35.7 °F 27.9 °F 30.15 in Calm     73% 0.00 in
17:30 35.6 °F 27.8 °F 30.15 in Calm   1.0 mph 73% 0.00 in
17:35 35.6 °F 27.8 °F 30.15 in Calm     73% 0.00 in
17:40 35.6 °F 27.8 °F 30.14 in Calm     73% 0.00 in
17:45 35.5 °F 28.0 °F 30.14 in Calm     74% 0.00 in
17:50 35.4 °F 28.3 °F 30.14 in Calm   1.0 mph 75% 0.00 in
17:55 35.4 °F 28.3 °F 30.15 in Calm   2.0 mph 75% 0.00 in
18:00 35.3 °F 28.2 °F 30.14 in South 1.0 mph 1.0 mph 75% 0.00 in
18:05 35.3 °F 28.2 °F 30.14 in SSE 1.0 mph 2.0 mph 75% 0.00 in
18:10 35.3 °F 28.5 °F 30.14 in SSE 1.0 mph 2.0 mph 76% 0.00 in
18:15 35.2 °F 28.4 °F 30.14 in Calm   1.0 mph 76% 0.00 in
18:20 35.2 °F 28.4 °F 30.14 in Calm   1.0 mph 76% 0.00 in
18:25 35.1 °F 28.3 °F 30.13 in Calm   1.0 mph 76% 0.00 in
18:30 35.1 °F 28.3 °F 30.13 in Calm   1.0 mph 76% 0.00 in
18:35 35.0 °F 28.2 °F 30.12 in SSW 1.0 mph 1.0 mph 76% 0.00 in
18:40 35.0 °F 28.2 °F 30.11 in Calm   1.0 mph 76% 0.00 in
18:45 35.0 °F 28.2 °F 30.10 in Calm     76% 0.00 in
18:50 34.9 °F 28.1 °F 30.11 in SSE 1.0 mph 1.0 mph 76% 0.00 in
18:55 34.9 °F 28.1 °F 30.11 in Calm   1.0 mph 76% 0.00 in
19:00 34.8 °F 28.0 °F 30.11 in Calm   1.0 mph 76% 0.00 in
19:05 34.8 °F 28.0 °F 30.11 in Calm     76% 0.00 in
HorshamWeather.Com
Compliments of Weather Underground